Météo Nord-Pas-de-Calais   La météo au plus près de chez vous

Station météorologique

Observations météo à Cos (09099)

09099001 519 m Dernier relevé à 13:06
34.9°C
Humidité 29 % Vent 2.9 km/h

Journée consultée

Vendredi 4 Septembre 2026

Synthèse de la journée

Périodes de référence en UTC

Température maximale

35.2°C

à 13:00

06h 06h

Température minimale

14.4°C

à 07:00

18h 18h

Rafale maximale

30 km/h

à 13:06

00h 00h

Précipitations

0 mm

Cumul quotidien

06h 06h

Graphiques de la journée

Heure locale Réduire

Données détaillées

Relevés météo

Pas de 6 minutes Afficher les relevés infra-horaires
Relevés météo détaillés à Cos pour le Vendredi 4 Septembre 2026
Heure Température °C Point de rosée °C Humidité % Vent moyen (raf.), km/h Précipitations mm
13:06 34.9 °C 7.8 °C 19 % 13 km/h (30 km/h) 0 mm0 mm
13:00 35 °C 7.9 °C 19 % 12 km/h (27 km/h) 0 mm0 mm
12:54 35.1 °C 8.8 °C 20 % 11 km/h (23 km/h) 0 mm0 mm
12:48 34.4 °C 8.9 °C 21 % 12 km/h (23 km/h) 0 mm0 mm
12:42 34 °C 7.9 °C 20 % 8 km/h (19 km/h) 0 mm0 mm
12:36 34 °C 10.6 °C 24 % 5 km/h (12 km/h) 0 mm0 mm
12:30 33.3 °C 12.3 °C 28 % 4 km/h (9 km/h) 0 mm0 mm
12:24 32.5 °C 11.1 °C 27 % 4 km/h (8 km/h) 0 mm0 mm
12:18 32.4 °C 11.5 °C 28 % 4 km/h (8 km/h) 0 mm0 mm
12:12 31.9 °C 12.2 °C 30 % 4 km/h (8 km/h) 0 mm0 mm
12:06 31.2 °C 11.1 °C 29 % 3 km/h (8 km/h) 0 mm0 mm
12:00 31 °C 10.9 °C 29 % 3 km/h (7 km/h) 0 mm0 mm
11:54 30.5 °C 10.5 °C 29 % 3 km/h (7 km/h) 0 mm0 mm
11:48 30.1 °C 11.1 °C 31 % 3 km/h (7 km/h) 0 mm0 mm
11:42 29.3 °C 10.9 °C 32 % 3 km/h (7 km/h) 0 mm0 mm
11:36 29.5 °C 10.6 °C 31 % 2 km/h (6 km/h) 0 mm0 mm
11:30 29.3 °C 11.4 °C 33 % 2 km/h (6 km/h) 0 mm0 mm
11:24 28.8 °C 10.9 °C 33 % 2 km/h (7 km/h) 0 mm0 mm
11:18 28.2 °C 12.1 °C 37 % 2 km/h (8 km/h) 0 mm0 mm
11:12 27.9 °C 11.4 °C 36 % 3 km/h (8 km/h) 0 mm0 mm
11:06 27.2 °C 11.6 °C 38 % 3 km/h (7 km/h) 0 mm0 mm
11:00 26.4 °C 12.1 °C 41 % 2 km/h (6 km/h) 0 mm0 mm
10:54 25.8 °C 11.9 °C 42 % 3 km/h (8 km/h) 0 mm0 mm
10:48 25.3 °C 11.5 °C 42 % 3 km/h (8 km/h) 0 mm0 mm
10:42 25.2 °C 11.4 °C 42 % 2 km/h (5 km/h) 0 mm0 mm
10:36 24.6 °C 10.8 °C 42 % 2 km/h (6 km/h) 0 mm0 mm
10:30 24.3 °C 10.9 °C 43 % 2 km/h (5 km/h) 0 mm0 mm
10:24 23.8 °C 11.1 °C 45 % 3 km/h (5 km/h) 0 mm0 mm
10:18 23.4 °C 11.1 °C 46 % 3 km/h (6 km/h) 0 mm0 mm
10:12 22.8 °C 11.5 °C 49 % 3 km/h (6 km/h) 0 mm0 mm
10:06 22.3 °C 10.8 °C 48 % 3 km/h (5 km/h) 0 mm0 mm
10:00 21.8 °C 10.9 °C 50 % 2 km/h (5 km/h) 0 mm0 mm
09:54 21.5 °C 11.5 °C 53 % 2 km/h (5 km/h) 0 mm0 mm
09:48 21.1 °C 11.4 °C 54 % 2 km/h (5 km/h) 0 mm0 mm
09:42 20.7 °C 11.6 °C 56 % 3 km/h (5 km/h) 0 mm0 mm
09:36 20.3 °C 11 °C 55 % 2 km/h (5 km/h) 0 mm0 mm
09:30 19.8 °C 11.3 °C 58 % 2 km/h (4 km/h) 0 mm0 mm
09:24 19 °C 11.6 °C 62 % 3 km/h (5 km/h) 0 mm0 mm
09:18 18.6 °C 11.9 °C 65 % 3 km/h (5 km/h) 0 mm0 mm
09:12 18.5 °C 11.8 °C 65 % 3 km/h (4 km/h) 0 mm0 mm
09:06 18.2 °C 11.7 °C 66 % 3 km/h (5 km/h) 0 mm0 mm
09:00 17.7 °C 11.7 °C 68 % 3 km/h (6 km/h) 0 mm0 mm
08:54 17.1 °C 12 °C 72 % 4 km/h (6 km/h) 0 mm0 mm
08:48 16.6 °C 11.9 °C 74 % 3 km/h (6 km/h) 0 mm0 mm
08:42 16.4 °C 12 °C 75 % 2 km/h (3 km/h) 0 mm0 mm
08:36 16.4 °C 12 °C 75 % 2 km/h (4 km/h) 0 mm0 mm
08:30 16.7 °C 12.2 °C 75 % 2 km/h (4 km/h) 0 mm0 mm
08:24 16.3 °C 11.4 °C 73 % 0 km/h (3 km/h) 0 mm0 mm
08:18 16.2 °C 11.6 °C 74 % 0 km/h (5 km/h) 0 mm0 mm
08:12 15.7 °C 11.1 °C 74 % 2 km/h (5 km/h) 0 mm0 mm
08:06 15.5 °C 11.1 °C 75 % 2 km/h (5 km/h) 0 mm0 mm
08:00 15.3 °C 10.9 °C 75 % 2 km/h (5 km/h) 0 mm0 mm
07:54 15.2 °C 10.8 °C 75 % 2 km/h (5 km/h) 0 mm0 mm
07:48 15.3 °C 10.7 °C 74 % 2 km/h (6 km/h) 0 mm0 mm
07:42 15.2 °C 10.6 °C 74 % 3 km/h (8 km/h) 0 mm0 mm
07:36 15.3 °C 10.5 °C 73 % 3 km/h (8 km/h) 0 mm0 mm
07:30 15.1 °C 10.7 °C 75 % 3 km/h (5 km/h) 0 mm0 mm
07:24 14.9 °C 10.7 °C 76 % 3 km/h (6 km/h) 0 mm0 mm
07:18 14.8 °C 10.8 °C 77 % 2 km/h (6 km/h) 0 mm0 mm
07:12 15.5 °C 10.9 °C 74 % 2 km/h (5 km/h) 0 mm0 mm
07:06 15.2 °C 10.8 °C 75 % 2 km/h (4 km/h) 0 mm0 mm
07:00 14.9 °C 11.1 °C 78 % 0 km/h (4 km/h) 0 mm0 mm
06:54 15.4 °C 11 °C 75 % 2 km/h (5 km/h) 0 mm0 mm
06:48 15.3 °C 10.9 °C 75 % 4 km/h (6 km/h) 0 mm0 mm
06:42 15.1 °C 11.3 °C 78 % 4 km/h (6 km/h) 0 mm0 mm
06:36 15 °C 11.2 °C 78 % 3 km/h (6 km/h) 0 mm0 mm
06:30 15.1 °C 11.3 °C 78 % 3 km/h (6 km/h) 0 mm0 mm
06:24 14.8 °C 11.4 °C 80 % 3 km/h (6 km/h) 0 mm0 mm
06:18 15 °C 11.2 °C 78 % 2 km/h (4 km/h) 0 mm0 mm
06:12 15.3 °C 11.5 °C 78 % 3 km/h (4 km/h) 0 mm0 mm
06:06 15.1 °C 11.5 °C 79 % 3 km/h (4 km/h) 0 mm0 mm
06:00 15.3 °C 11.5 °C 78 % 2 km/h (4 km/h) 0 mm0 mm
05:54 15.5 °C 11.3 °C 76 % 0 km/h (4 km/h) 0 mm0 mm
05:48 15.6 °C 11.4 °C 76 % 2 km/h (4 km/h) 0 mm0 mm
05:42 15.7 °C 11.3 °C 75 % 2 km/h (5 km/h) 0 mm0 mm
05:36 15.6 °C 11.6 °C 77 % 2 km/h (5 km/h) 0 mm0 mm
05:30 15.1 °C 11.3 °C 78 % 2 km/h (5 km/h) 0 mm0 mm
05:24 16.4 °C 11.5 °C 73 % 2 km/h (5 km/h) 0 mm0 mm
05:18 16.1 °C 11.7 °C 75 % 2 km/h (5 km/h) 0 mm0 mm
05:12 16.2 °C 12 °C 76 % 0 km/h (5 km/h) 0 mm0 mm
05:06 16.2 °C 11.8 °C 75 % 2 km/h (8 km/h) 0 mm0 mm
05:00 16 °C 11.6 °C 75 % 2 km/h (8 km/h) 0 mm0 mm
04:54 15.9 °C 11.9 °C 77 % 2 km/h (5 km/h) 0 mm0 mm
04:48 15.6 °C 12 °C 79 % 3 km/h (6 km/h) 0 mm0 mm
04:42 16.1 °C 12.3 °C 78 % 3 km/h (6 km/h) 0 mm0 mm
04:36 15.8 °C 12.2 °C 79 % 3 km/h (5 km/h) 0 mm0 mm
04:30 16.2 °C 12.2 °C 77 % 3 km/h (5 km/h) 0 mm0 mm
04:24 16.6 °C 12.1 °C 75 % 2 km/h (5 km/h) 0 mm0 mm
04:18 16.4 °C 12.4 °C 77 % 0 km/h (3 km/h) 0 mm0 mm
04:12 16.7 °C 12.4 °C 76 % 0 km/h (4 km/h) 0 mm0 mm
04:06 15.9 °C 12.5 °C 80 % 2 km/h (4 km/h) 0 mm0 mm
04:00 15.4 °C 12.2 °C 81 % 0 km/h (4 km/h) 0 mm0 mm
03:54 15.8 °C 12.5 °C 81 % 3 km/h (5 km/h) 0 mm0 mm
03:48 15.8 °C 12.4 °C 80 % 3 km/h (5 km/h) 0 mm0 mm
03:42 15.8 °C 12.4 °C 80 % 0 km/h (4 km/h) 0 mm0 mm
03:36 15.5 °C 12.4 °C 82 % 2 km/h (5 km/h) 0 mm0 mm
03:30 15.4 °C 12.3 °C 82 % 3 km/h (6 km/h) 0 mm0 mm
03:24 16.7 °C 12.2 °C 75 % 2 km/h (6 km/h) 0 mm0 mm
03:18 16.5 °C 12.5 °C 77 % 0 km/h (4 km/h) 0 mm0 mm
03:12 16.9 °C 12.6 °C 76 % 0 km/h (4 km/h) 0 mm0 mm
03:06 16.2 °C 12.4 °C 78 % 0 km/h (3 km/h) 0 mm0 mm
03:00 17 °C 12.7 °C 76 % 0 km/h (2 km/h) 0 mm0 mm
02:54 17.5 °C 12.8 °C 74 % 0 km/h (5 km/h) 0 mm0 mm
02:48 16.8 °C 12.7 °C 77 % 2 km/h (5 km/h) 0 mm0 mm
02:42 16.6 °C 12.1 °C 75 % 2 km/h (4 km/h) 0 mm0 mm
02:36 16.9 °C 12.4 °C 75 % 2 km/h (4 km/h) 0 mm0 mm
02:30 16.4 °C 12.6 °C 78 % 2 km/h (3 km/h) 0 mm0 mm
02:24 16.5 °C 12.1 °C 75 % 0 km/h (3 km/h) 0 mm0 mm
02:18 17.2 °C 12.5 °C 74 % 0 km/h (2 km/h) 0 mm0 mm
02:12 17.3 °C 12.4 °C 73 % 0 km/h (3 km/h) 0 mm0 mm
02:06 17.3 °C 12.6 °C 74 % 0 km/h (3 km/h) 0 mm0 mm
02:00 17 °C 11.9 °C 72 % 0 km/h (5 km/h) 0 mm0 mm
01:54 18.3 °C 12.5 °C 69 % 3 km/h (5 km/h) 0 mm0 mm
01:48 18.1 °C 12.3 °C 69 % 3 km/h (4 km/h) 0 mm0 mm
01:42 18.2 °C 12 °C 67 % 3 km/h (4 km/h) 0 mm0 mm
01:36 18 °C 11.8 °C 67 % 3 km/h (4 km/h) 0 mm0 mm
01:30 17.7 °C 11.7 °C 68 % 3 km/h (5 km/h) 0 mm0 mm
01:24 17.8 °C 11.6 °C 67 % 3 km/h (5 km/h) 0 mm0 mm
01:18 18.2 °C 11.3 °C 64 % 2 km/h (5 km/h) 0 mm0 mm
01:12 19.1 °C 11.6 °C 62 % 4 km/h (6 km/h) 0 mm0 mm
01:06 19.1 °C 11.4 °C 61 % 5 km/h (6 km/h) 0 mm0 mm
01:00 19 °C 11.3 °C 61 % 5 km/h (7 km/h) 0 mm0 mm
00:54 18.9 °C 11.5 °C 62 % 5 km/h (6 km/h) 0 mm0 mm
00:48 18.6 °C 11.4 °C 63 % 4 km/h (6 km/h) 0 mm0 mm
00:42 18.3 °C 11.4 °C 64 % 3 km/h (6 km/h) 0 mm0 mm
00:36 18.2 °C 11.3 °C 64 % 3 km/h (4 km/h) 0 mm0 mm
00:30 18.2 °C 11.7 °C 66 % 3 km/h (5 km/h) 0 mm0 mm
00:24 18.2 °C 11.3 °C 64 % 3 km/h (6 km/h) 0 mm0 mm
00:18 18.4 °C 11.7 °C 65 % 3 km/h (6 km/h) 0 mm0 mm
00:12 18.8 °C 11.6 °C 63 % 2 km/h (4 km/h) 0 mm0 mm
00:06 18.7 °C 11.5 °C 63 % 0 km/h (2 km/h) 0 mm0 mm
00:00 18.7 °C 11.5 °C 63 % 0 km/h (3 km/h) 0 mm0 mm

Données via Météo-France

Relevés météo à Cos

Cette page rassemble les observations de la station de Cos : température, humidité, vent, précipitations et pression atmosphérique. Les graphiques facilitent le suivi de la journée, tandis que le tableau donne accès aux mesures horaires et infra-horaires disponibles.

Pour replacer ces mesures dans leur contexte, consultez la climatologie de Cos ainsi que ses normales et records. Retrouvez aussi la carte des observations météo en temps réel.